sim
Sign-in with your pilot id or email,
or register
Callsign
Passwort

Schedule Details

Flight Number: OEO5153
Departure: Luxor International Airport (HELX) at 09:10
Arrival: Munich Airport (EDDM) at 13:55

Weather Information
Getting current METAR information for HELX 190800Z 35003KT CAVOK 36/18 Q1007 NOSIG
Getting current METAR information for EDDM 190820Z 09007KT CAVOK 14/08 Q1020 NOSIG

Schedule Frequency

Route Map